createdAt,value
2019-05-20T00:01:43.966Z,14.40
2019-05-20T00:04:17.643Z,14.20
2019-05-20T00:06:46.923Z,14.19
2019-05-20T00:09:15.956Z,14.08
2019-05-20T00:11:47.830Z,13.98
2019-05-20T00:14:16.887Z,13.73
2019-05-20T00:16:49.092Z,14.07
2019-05-20T00:19:18.164Z,6.25
2019-05-20T00:21:47.193Z,13.74
2019-05-20T00:24:18.202Z,13.55
2019-05-20T00:26:47.310Z,13.34
2019-05-20T00:29:21.276Z,13.17
2019-05-20T00:31:50.364Z,13.32
2019-05-20T00:34:34.572Z,13.30
2019-05-20T00:36:59.533Z,13.19
2019-05-20T00:39:28.614Z,13.26
2019-05-20T00:42:06.643Z,12.94
2019-05-20T00:44:35.676Z,11.44
2019-05-20T00:47:09.185Z,13.36
2019-05-20T00:49:39.854Z,13.48
2019-05-20T00:52:08.998Z,13.35
2019-05-20T00:54:38.045Z,11.77
2019-05-20T00:57:07.074Z,13.56
2019-05-20T00:59:36.119Z,12.23
2019-05-20T01:02:05.438Z,14.02
2019-05-20T01:04:34.804Z,13.93
2019-05-20T01:07:06.883Z,14.17
2019-05-20T01:09:38.390Z,13.97
2019-05-20T01:12:07.494Z,14.01
2019-05-20T01:14:36.755Z,14.14
2019-05-20T01:17:07.581Z,14.01
2019-05-20T01:19:36.626Z,14.08
2019-05-20T01:22:05.897Z,14.24
2019-05-20T01:24:34.956Z,13.92
2019-05-20T01:27:05.188Z,13.95
2019-05-20T01:29:35.745Z,13.89
2019-05-20T01:32:09.346Z,13.96
2019-05-20T01:34:40.390Z,14.11
2019-05-20T01:37:11.301Z,14.03
2019-05-20T01:39:41.462Z,14.68
2019-05-20T01:42:12.309Z,14.21
2019-05-20T01:44:47.001Z,13.91
2019-05-20T01:47:22.534Z,13.85
2019-05-20T01:49:51.623Z,13.77
2019-05-20T01:52:24.352Z,14.04
2019-05-20T01:54:55.154Z,14.17
2019-05-20T01:57:24.591Z,14.22
2019-05-20T01:59:53.626Z,14.37
2019-05-20T02:02:23.449Z,14.72
2019-05-20T02:04:52.560Z,14.91
2019-05-20T02:07:24.346Z,14.91
2019-05-20T02:09:58.787Z,15.12
2019-05-20T02:12:27.956Z,15.15
2019-05-20T02:15:02.831Z,15.72
2019-05-20T02:17:42.912Z,15.45
2019-05-20T02:20:15.093Z,15.29
2019-05-20T02:22:44.137Z,15.12
2019-05-20T02:25:16.228Z,15.14
2019-05-20T02:27:45.277Z,14.91
2019-05-20T02:30:16.854Z,15.41
2019-05-20T02:32:48.857Z,15.92
2019-05-20T02:35:25.437Z,16.37
2019-05-20T02:37:54.829Z,16.03
2019-05-20T02:40:24.209Z,15.69
2019-05-20T02:42:53.467Z,15.39
2019-05-20T02:45:27.964Z,15.29
2019-05-20T02:47:58.769Z,15.37
2019-05-20T02:50:30.229Z,15.35
2019-05-20T02:53:00.665Z,15.24
2019-05-20T02:55:29.752Z,15.19
2019-05-20T02:58:08.074Z,15.36
2019-05-20T03:00:37.153Z,15.02
2019-05-20T03:03:06.234Z,15.07
2019-05-20T03:05:36.093Z,15.14
2019-05-20T03:08:08.063Z,14.85
2019-05-20T03:10:38.666Z,15.12
2019-05-20T03:13:07.684Z,15.08
2019-05-20T03:15:39.389Z,15.30
2019-05-20T03:18:11.477Z,15.47
2019-05-20T03:20:42.025Z,15.60
2019-05-20T03:23:14.539Z,14.91
2019-05-20T03:25:45.129Z,14.83
2019-05-20T03:28:16.160Z,15.33
2019-05-20T03:30:46.826Z,15.39
2019-05-20T03:33:15.971Z,15.20
2019-05-20T03:35:45.750Z,15.39
2019-05-20T03:38:17.800Z,15.32
2019-05-20T03:40:47.372Z,15.30
2019-05-20T03:43:32.028Z,15.37
2019-05-20T03:46:01.534Z,15.56
2019-05-20T03:48:30.938Z,15.43
2019-05-20T03:51:01.062Z,15.66
2019-05-20T03:53:31.813Z,16.08
2019-05-20T03:56:06.037Z,15.76
2019-05-20T03:58:37.553Z,15.34
2019-05-20T04:01:06.687Z,15.37
2019-05-20T04:03:37.634Z,14.87
2019-05-20T04:06:10.629Z,14.80
2019-05-20T04:08:39.758Z,7.21
2019-05-20T04:11:14.895Z,15.57
2019-05-20T04:13:43.936Z,15.60
2019-05-20T04:16:13.420Z,14.88
2019-05-20T04:18:45.951Z,14.62
2019-05-20T04:21:15.045Z,15.03
2019-05-20T04:23:45.607Z,15.34
2019-05-20T04:26:17.919Z,15.21
2019-05-20T04:28:47.179Z,15.11
2019-05-20T04:31:25.256Z,15.36
2019-05-20T04:33:57.173Z,15.36
2019-05-20T04:36:29.260Z,15.07
2019-05-20T04:39:01.290Z,15.46
2019-05-20T04:41:35.764Z,15.68
2019-05-20T04:44:04.804Z,15.97
2019-05-20T04:46:36.157Z,15.36
2019-05-20T04:49:12.663Z,15.24
2019-05-20T04:51:46.090Z,15.35
2019-05-20T04:54:17.205Z,15.17
2019-05-20T04:56:49.116Z,14.73
2019-05-20T04:59:19.616Z,14.88
2019-05-20T05:01:51.523Z,15.06
2019-05-20T05:04:20.966Z,14.82
2019-05-20T05:06:53.000Z,14.92
2019-05-20T05:09:27.847Z,15.01
2019-05-20T05:12:00.124Z,14.72
2019-05-20T05:14:34.534Z,15.06
2019-05-20T05:17:04.958Z,15.63
2019-05-20T05:19:36.549Z,14.77
2019-05-20T05:22:05.647Z,14.89
2019-05-20T05:24:42.360Z,14.83
2019-05-20T05:27:11.481Z,14.94
2019-05-20T05:29:41.196Z,14.98
2019-05-20T05:32:12.144Z,14.74
2019-05-20T05:34:43.471Z,15.06
2019-05-20T05:37:15.716Z,15.08
2019-05-20T05:39:46.942Z,14.93
2019-05-20T05:42:24.699Z,14.91
2019-05-20T05:44:53.995Z,14.94
2019-05-20T05:47:23.205Z,14.97
2019-05-20T05:49:52.373Z,15.29
2019-05-20T05:52:22.979Z,15.10
2019-05-20T05:54:55.681Z,15.27
2019-05-20T05:57:34.305Z,15.06
2019-05-20T06:00:07.264Z,15.32
2019-05-20T06:02:40.474Z,15.13
2019-05-20T06:05:10.753Z,14.92
2019-05-20T06:07:39.791Z,14.84
2019-05-20T06:10:10.280Z,14.60
2019-05-20T06:12:45.988Z,14.59
2019-05-20T06:15:16.347Z,14.73
2019-05-20T06:17:46.565Z,14.74
2019-05-20T06:20:18.057Z,15.17
2019-05-20T06:22:47.127Z,14.94
2019-05-20T06:25:16.776Z,15.41
2019-05-20T06:27:48.681Z,15.13
2019-05-20T06:30:18.520Z,15.38
2019-05-20T06:32:48.783Z,15.38
2019-05-20T06:35:18.444Z,15.11
2019-05-20T06:37:55.606Z,14.75
2019-05-20T06:40:26.733Z,15.00
2019-05-20T06:43:01.691Z,14.81
2019-05-20T06:45:31.301Z,14.77
2019-05-20T06:48:17.795Z,14.86
2019-05-20T06:50:47.752Z,14.78
2019-05-20T06:53:17.071Z,14.71
2019-05-20T06:55:48.694Z,14.63
2019-05-20T06:58:21.119Z,14.96
2019-05-20T07:00:53.956Z,15.03
2019-05-20T07:03:23.136Z,14.85
2019-05-20T07:05:52.240Z,14.86
2019-05-20T07:08:21.798Z,14.56
2019-05-20T07:10:53.126Z,14.65
2019-05-20T07:13:23.752Z,14.81
2019-05-20T07:15:58.861Z,14.93
2019-05-20T07:18:33.985Z,14.99
2019-05-20T07:21:05.078Z,14.96
2019-05-20T07:23:38.031Z,14.88
2019-05-20T07:26:07.558Z,14.83
2019-05-20T07:28:38.321Z,14.99
2019-05-20T07:31:16.962Z,15.05
2019-05-20T07:33:47.379Z,15.35
2019-05-20T07:36:17.198Z,15.60
2019-05-20T07:38:50.210Z,15.64
2019-05-20T07:41:20.411Z,15.80
2019-05-20T07:43:50.928Z,15.24
2019-05-20T07:46:20.527Z,15.66
2019-05-20T07:48:50.235Z,15.97
2019-05-20T07:51:19.871Z,16.10
2019-05-20T07:53:50.657Z,15.79
2019-05-20T07:56:22.950Z,16.13
2019-05-20T07:58:54.366Z,16.00
2019-05-20T08:01:24.471Z,16.26
2019-05-20T08:03:53.623Z,16.35
2019-05-20T08:06:27.060Z,15.86
2019-05-20T08:08:56.240Z,15.69
2019-05-20T08:11:25.649Z,15.82
2019-05-20T08:13:59.669Z,15.80
2019-05-20T08:16:41.056Z,16.16
2019-05-20T08:19:10.142Z,16.10
2019-05-20T08:21:39.609Z,16.80
2019-05-20T08:24:08.707Z,17.30
2019-05-20T08:26:40.863Z,16.33
2019-05-20T08:29:14.859Z,15.98
2019-05-20T08:31:49.372Z,15.39
2019-05-20T08:34:22.476Z,16.20
2019-05-20T08:36:51.572Z,15.58
2019-05-20T08:39:21.022Z,15.80
2019-05-20T08:41:52.114Z,15.69
2019-05-20T08:44:22.755Z,15.39
2019-05-20T08:46:52.726Z,15.00
2019-05-20T08:49:22.140Z,15.44
2019-05-20T08:51:52.843Z,15.01
2019-05-20T08:54:22.196Z,14.75
2019-05-20T08:56:52.972Z,14.97
2019-05-20T08:59:22.279Z,14.89
2019-05-20T09:01:51.328Z,15.07
2019-05-20T09:04:21.575Z,14.86
2019-05-20T09:06:52.263Z,15.21
2019-05-20T09:09:23.155Z,15.13
2019-05-20T09:11:52.609Z,15.28
2019-05-20T09:14:21.757Z,13.63
2019-05-20T09:16:52.455Z,15.18
2019-05-20T09:19:27.751Z,16.06
2019-05-20T09:21:58.215Z,15.89
2019-05-20T09:24:33.369Z,15.81
2019-05-20T09:27:05.779Z,15.53
2019-05-20T09:29:37.990Z,15.49
2019-05-20T09:32:22.822Z,15.70
2019-05-20T09:34:51.929Z,15.73
2019-05-20T09:37:21.105Z,15.92
2019-05-20T09:39:50.105Z,15.98
2019-05-20T09:42:19.229Z,15.87
2019-05-20T09:44:51.098Z,15.84
2019-05-20T09:47:26.584Z,15.81
2019-05-20T09:49:58.326Z,15.85
2019-05-20T09:52:27.691Z,15.94
2019-05-20T09:54:57.447Z,15.86
2019-05-20T09:57:29.678Z,15.98
2019-05-20T09:59:58.934Z,15.58
2019-05-20T10:02:35.153Z,15.85
2019-05-20T10:05:05.917Z,15.65
2019-05-20T10:07:38.107Z,16.05
2019-05-20T10:10:07.290Z,16.08
2019-05-20T10:12:46.024Z,15.34
2019-05-20T10:15:07.648Z,15.26
2019-05-20T10:17:36.936Z,15.49
2019-05-20T10:20:07.621Z,15.42
2019-05-20T10:22:41.097Z,15.71
2019-05-20T10:25:10.397Z,15.41
2019-05-20T10:27:39.517Z,15.26
2019-05-20T10:30:09.267Z,15.45
2019-05-20T10:32:39.653Z,15.57
2019-05-20T10:35:10.876Z,15.50
2019-05-20T10:37:39.931Z,15.63
2019-05-20T10:40:12.666Z,15.33
2019-05-20T10:42:43.752Z,15.90
2019-05-20T10:45:13.123Z,16.09
2019-05-20T10:47:43.991Z,16.56
2019-05-20T10:50:24.138Z,15.99
2019-05-20T10:52:53.131Z,16.27
2019-05-20T10:55:24.260Z,16.17
2019-05-20T10:57:57.900Z,15.97
2019-05-20T11:00:30.422Z,16.35
2019-05-20T11:03:02.390Z,16.36
2019-05-20T11:05:31.720Z,16.15
2019-05-20T11:08:01.507Z,16.04
2019-05-20T11:10:30.846Z,16.18
2019-05-20T11:13:00.421Z,16.58
2019-05-20T11:15:29.928Z,16.56
2019-05-20T11:18:00.577Z,16.22
2019-05-20T11:20:31.965Z,16.52
2019-05-20T11:23:01.531Z,16.41
2019-05-20T11:25:31.054Z,16.70
2019-05-20T11:28:00.278Z,16.78
2019-05-20T11:30:31.646Z,16.58
2019-05-20T11:33:03.647Z,17.41
2019-05-20T11:35:38.991Z,16.86
2019-05-20T11:38:08.088Z,16.74
2019-05-20T11:40:37.178Z,16.48
2019-05-20T11:43:06.255Z,16.30
2019-05-20T11:45:39.462Z,16.35
2019-05-20T11:48:11.690Z,16.68
2019-05-20T11:50:48.107Z,16.84
2019-05-20T11:53:18.114Z,17.13
2019-05-20T11:55:59.208Z,16.94
2019-05-20T11:58:31.094Z,16.89
2019-05-20T12:01:01.784Z,16.94
2019-05-20T12:03:32.529Z,16.79
2019-05-20T12:06:03.004Z,17.06
2019-05-20T12:08:35.394Z,17.14
2019-05-20T12:11:06.600Z,16.98
2019-05-20T12:13:38.869Z,17.39
2019-05-20T12:16:10.286Z,17.63
2019-05-20T12:18:40.779Z,17.58
2019-05-20T12:21:21.137Z,17.73
2019-05-20T12:23:51.432Z,16.81
2019-05-20T12:26:22.922Z,16.44
2019-05-20T12:28:57.949Z,16.13
2019-05-20T12:31:29.109Z,16.79
2019-05-20T12:33:59.471Z,16.55
2019-05-20T12:36:28.564Z,16.42
2019-05-20T12:39:00.057Z,16.64
2019-05-20T12:41:29.571Z,16.14
2019-05-20T12:44:12.279Z,16.19
2019-05-20T12:46:29.728Z,16.41
2019-05-20T12:48:59.211Z,16.95
2019-05-20T12:51:29.939Z,16.72
2019-05-20T12:54:00.668Z,16.34
2019-05-20T12:56:29.889Z,16.68
2019-05-20T12:59:00.408Z,16.82
2019-05-20T13:01:35.097Z,16.50
2019-05-20T13:04:04.319Z,17.20
2019-05-20T13:06:33.497Z,16.67
2019-05-20T13:09:02.767Z,16.65
2019-05-20T13:11:32.443Z,16.27
2019-05-20T13:14:02.613Z,16.20
2019-05-20T13:16:31.962Z,15.34
2019-05-20T13:19:07.473Z,16.71
2019-05-20T13:21:36.808Z,16.87
2019-05-20T13:24:06.574Z,16.63
2019-05-20T13:26:36.158Z,16.76
2019-05-20T13:29:08.954Z,16.31
2019-05-20T13:31:38.804Z,16.21
2019-05-20T13:34:07.903Z,16.62
2019-05-20T13:36:37.309Z,16.43
2019-05-20T13:39:08.532Z,16.64
2019-05-20T13:41:40.455Z,17.03
2019-05-20T13:44:13.913Z,17.26
2019-05-20T13:46:46.201Z,16.57
2019-05-20T13:49:16.005Z,17.09
2019-05-20T13:51:51.078Z,17.24
2019-05-20T13:54:20.202Z,17.25
2019-05-20T13:56:49.500Z,16.73
2019-05-20T13:59:20.459Z,16.58
2019-05-20T14:01:49.516Z,16.98
2019-05-20T14:04:18.652Z,16.93
2019-05-20T14:06:47.729Z,9.44
2019-05-20T14:09:16.891Z,14.27
2019-05-20T14:11:45.937Z,17.01
2019-05-20T14:14:16.393Z,16.70
2019-05-20T14:16:45.989Z,17.03
2019-05-20T14:19:15.735Z,16.89
2019-05-20T14:21:44.889Z,16.63
2019-05-20T14:24:20.129Z,17.01
2019-05-20T14:26:49.423Z,17.21
2019-05-20T14:29:18.426Z,17.29
2019-05-20T14:31:48.443Z,17.15
2019-05-20T14:34:18.571Z,17.32
2019-05-20T14:36:52.660Z,16.94
2019-05-20T14:39:20.407Z,16.44
2019-05-20T14:41:49.545Z,16.61
2019-05-20T14:44:18.619Z,16.58
2019-05-20T14:46:48.150Z,16.64
2019-05-20T14:49:19.354Z,9.28
2019-05-20T14:51:53.299Z,17.35
2019-05-20T14:54:22.363Z,17.32
2019-05-20T14:56:56.171Z,16.74
2019-05-20T14:59:29.994Z,16.79
2019-05-20T15:01:59.094Z,16.85
2019-05-20T15:04:28.189Z,17.00
2019-05-20T15:06:58.145Z,17.47
2019-05-20T15:09:31.954Z,17.05
2019-05-20T15:12:01.372Z,16.75
2019-05-20T15:14:32.636Z,16.80
2019-05-20T15:17:03.902Z,16.69
2019-05-20T15:19:35.525Z,16.48
2019-05-20T15:22:04.713Z,16.78
2019-05-20T15:24:33.901Z,17.18
2019-05-20T15:27:03.079Z,16.74
2019-05-20T15:29:32.149Z,16.55
2019-05-20T15:32:01.431Z,16.75
2019-05-20T15:34:33.808Z,16.83
2019-05-20T15:37:07.995Z,16.45
2019-05-20T15:39:37.049Z,16.45
2019-05-20T15:42:07.562Z,16.87
2019-05-20T15:44:38.228Z,16.75
2019-05-20T15:47:07.259Z,16.44
2019-05-20T15:49:36.349Z,16.64
2019-05-20T15:52:05.518Z,17.15
2019-05-20T15:54:36.363Z,16.66
2019-05-20T15:57:06.300Z,16.82
2019-05-20T15:59:45.486Z,16.61
2019-05-20T16:02:09.208Z,16.62
2019-05-20T16:04:38.332Z,16.72
2019-05-20T16:07:07.452Z,17.16
2019-05-20T16:09:40.347Z,15.40
2019-05-20T16:12:09.801Z,16.74
2019-05-20T16:14:38.891Z,17.24
2019-05-20T16:17:07.969Z,17.34
2019-05-20T16:19:37.055Z,17.19
2019-05-20T16:22:06.978Z,16.94
2019-05-20T16:24:36.415Z,16.85
2019-05-20T16:27:06.884Z,16.83
2019-05-20T16:29:36.014Z,16.49
2019-05-20T16:32:14.396Z,16.66
2019-05-20T16:34:44.983Z,16.67
2019-05-20T16:37:16.493Z,16.83
2019-05-20T16:39:45.951Z,16.38
2019-05-20T16:42:15.040Z,16.33
2019-05-20T16:44:46.656Z,16.96
2019-05-20T16:47:15.725Z,17.05
2019-05-20T16:49:44.831Z,16.87
2019-05-20T16:52:17.355Z,16.75
2019-05-20T16:54:50.790Z,16.44
2019-05-20T16:57:25.017Z,16.60
2019-05-20T16:59:54.097Z,16.54
2019-05-20T17:02:23.140Z,16.32
2019-05-20T17:04:52.367Z,16.12
2019-05-20T17:07:25.068Z,14.79
2019-05-20T17:09:54.175Z,16.87
2019-05-20T17:12:27.753Z,16.65
2019-05-20T17:14:58.397Z,16.61
2019-05-20T17:17:27.535Z,16.70
2019-05-20T17:19:56.596Z,16.74
2019-05-20T17:22:27.333Z,16.51
2019-05-20T17:25:04.114Z,15.87
2019-05-20T17:27:38.700Z,16.24
2019-05-20T17:30:09.629Z,16.40
2019-05-20T17:32:41.567Z,16.94
2019-05-20T17:35:20.820Z,15.76
2019-05-20T17:37:50.023Z,16.22
2019-05-20T17:40:20.495Z,16.28
2019-05-20T17:42:52.568Z,16.06
2019-05-20T17:45:24.096Z,16.14
2019-05-20T17:47:53.525Z,15.82
2019-05-20T17:50:25.652Z,15.97
2019-05-20T17:52:56.067Z,15.73
2019-05-20T17:55:31.066Z,15.80
2019-05-20T17:58:05.330Z,15.70
2019-05-20T18:00:34.544Z,15.69
2019-05-20T18:03:04.041Z,15.61
2019-05-20T18:05:33.887Z,15.66
2019-05-20T18:08:02.942Z,15.46
2019-05-20T18:10:31.991Z,15.93
2019-05-20T18:13:01.857Z,15.42
2019-05-20T18:15:30.955Z,15.33
2019-05-20T18:18:00.411Z,15.16
2019-05-20T18:20:29.734Z,15.37
2019-05-20T18:23:04.085Z,16.08
2019-05-20T18:25:33.144Z,16.01
2019-05-20T18:28:04.204Z,15.66
2019-05-20T18:30:33.292Z,15.66
2019-05-20T18:33:02.381Z,15.79
2019-05-20T18:35:31.598Z,15.54
2019-05-20T18:38:01.130Z,15.64
2019-05-20T18:40:30.656Z,15.40
2019-05-20T18:43:00.790Z,15.26
2019-05-20T18:45:29.853Z,15.64
2019-05-20T18:47:58.940Z,15.40
2019-05-20T18:50:29.243Z,15.44
2019-05-20T18:53:00.154Z,15.63
2019-05-20T18:55:35.008Z,15.53
2019-05-20T18:58:05.893Z,15.37
2019-05-20T19:00:38.172Z,15.19
2019-05-20T19:03:07.233Z,15.38
2019-05-20T19:05:38.855Z,15.06
2019-05-20T19:08:14.256Z,15.21
2019-05-20T19:10:43.312Z,15.43
2019-05-20T19:13:12.389Z,15.15
2019-05-20T19:15:41.495Z,14.96
2019-05-20T19:18:12.480Z,15.42
2019-05-20T19:20:43.261Z,15.00
2019-05-20T19:23:12.293Z,15.09
2019-05-20T19:25:49.024Z,14.94
2019-05-20T19:28:18.617Z,14.82
2019-05-20T19:30:47.710Z,14.85
2019-05-20T19:33:18.222Z,14.67
2019-05-20T19:35:49.439Z,14.86
2019-05-20T19:38:31.738Z,14.61
2019-05-20T19:41:00.903Z,14.74
2019-05-20T19:43:30.015Z,14.74
2019-05-20T19:45:59.522Z,14.46
2019-05-20T19:48:28.586Z,14.51
2019-05-20T19:50:57.703Z,14.45
2019-05-20T19:53:30.044Z,14.54
2019-05-20T19:56:02.251Z,14.67
2019-05-20T19:58:31.748Z,14.51
2019-05-20T20:01:01.893Z,14.99
2019-05-20T20:03:31.415Z,14.51
2019-05-20T20:06:03.668Z,14.38
2019-05-20T20:08:32.731Z,14.30
2019-05-20T20:11:01.796Z,14.34
2019-05-20T20:13:33.935Z,14.32
2019-05-20T20:16:08.028Z,14.28
2019-05-20T20:18:32.790Z,14.31
2019-05-20T20:21:01.884Z,14.07
2019-05-20T20:23:31.466Z,14.24
2019-05-20T20:26:04.867Z,14.23
2019-05-20T20:28:33.987Z,14.19
2019-05-20T20:31:03.132Z,14.03
2019-05-20T20:33:32.208Z,14.24
2019-05-20T20:36:01.321Z,14.11
2019-05-20T20:38:30.433Z,14.54
2019-05-20T20:40:59.530Z,14.13
2019-05-20T20:43:32.158Z,14.05
2019-05-20T20:45:59.512Z,14.06
2019-05-20T20:48:31.620Z,14.01
2019-05-20T20:51:01.035Z,9.46
2019-05-20T20:53:35.254Z,14.29
2019-05-20T20:56:06.172Z,14.05
2019-05-20T20:58:35.705Z,14.19
2019-05-20T21:01:06.810Z,14.18
2019-05-20T21:03:36.897Z,13.83
2019-05-20T21:06:06.060Z,13.96
2019-05-20T21:08:35.570Z,14.21
2019-05-20T21:11:08.513Z,13.96
2019-05-20T21:13:38.684Z,14.04
2019-05-20T21:16:07.772Z,13.94
2019-05-20T21:18:39.833Z,14.04
2019-05-20T21:21:08.861Z,13.76
2019-05-20T21:23:38.188Z,13.76
2019-05-20T21:26:10.979Z,13.79
2019-05-20T21:28:43.508Z,13.61
2019-05-20T21:31:31.535Z,13.60
2019-05-20T21:34:04.971Z,12.32
2019-05-20T21:36:47.316Z,13.89
2019-05-20T21:39:07.454Z,14.09
2019-05-20T21:41:39.056Z,13.92
2019-05-20T21:44:08.231Z,13.95
2019-05-20T21:47:14.606Z,13.84
2019-05-20T21:49:47.074Z,14.36
2019-05-20T21:52:16.337Z,13.94
2019-05-20T21:54:46.691Z,13.53
2019-05-20T21:57:20.243Z,13.89
2019-05-20T21:59:49.839Z,14.01
2019-05-20T22:02:20.639Z,13.96
2019-05-20T22:04:49.793Z,13.98
2019-05-20T22:07:20.288Z,13.70
2019-05-20T22:09:56.987Z,13.96
2019-05-20T22:12:36.632Z,13.93
2019-05-20T22:15:06.537Z,14.36
2019-05-20T22:17:39.529Z,14.24
2019-05-20T22:20:08.834Z,14.16
2019-05-20T22:22:46.441Z,13.95
2019-05-20T22:25:17.977Z,13.81
2019-05-20T22:27:51.230Z,13.78
2019-05-20T22:30:20.341Z,13.79
2019-05-20T22:32:50.513Z,14.00
2019-05-20T22:35:23.338Z,13.67
2019-05-20T22:37:52.375Z,14.20
2019-05-20T22:40:21.439Z,14.25
2019-05-20T22:42:50.472Z,14.50
2019-05-20T22:45:19.570Z,14.12
2019-05-20T22:47:48.623Z,14.20
2019-05-20T22:50:17.672Z,14.11
2019-05-20T22:52:49.687Z,14.33
2019-05-20T22:55:18.747Z,14.58
2019-05-20T22:57:47.818Z,14.79
2019-05-20T23:00:16.849Z,14.78
2019-05-20T23:02:45.947Z,14.78
2019-05-20T23:05:15.866Z,14.34
2019-05-20T23:07:45.026Z,14.37
2019-05-20T23:10:14.310Z,14.13
2019-05-20T23:12:45.041Z,14.05
2019-05-20T23:15:15.614Z,13.94
2019-05-20T23:17:47.434Z,14.03
2019-05-20T23:20:18.270Z,13.80
2019-05-20T23:22:52.541Z,13.92
2019-05-20T23:25:21.575Z,14.12
2019-05-20T23:27:52.423Z,13.87
2019-05-20T23:30:21.541Z,13.94
2019-05-20T23:32:51.056Z,13.66
2019-05-20T23:35:21.440Z,13.90
2019-05-20T23:37:54.637Z,13.90
2019-05-20T23:40:24.980Z,13.79
2019-05-20T23:42:54.305Z,13.64
2019-05-20T23:45:23.961Z,13.65
2019-05-20T23:47:57.612Z,13.52
2019-05-20T23:50:30.583Z,13.59
2019-05-20T23:53:01.407Z,13.94
2019-05-20T23:55:30.462Z,13.45
2019-05-20T23:58:03.585Z,13.67
